createdAt,value
2019-03-12T00:00:51.094Z,33.80
2019-03-12T00:03:17.465Z,31.70
2019-03-12T00:05:43.917Z,34.10
2019-03-12T00:08:10.344Z,37.97
2019-03-12T00:10:36.737Z,45.20
2019-03-12T00:13:03.163Z,36.60
2019-03-12T00:15:29.603Z,39.93
2019-03-12T00:17:55.962Z,36.50
2019-03-12T00:20:22.412Z,36.70
2019-03-12T00:22:48.735Z,36.57
2019-03-12T00:25:15.195Z,39.20
2019-03-12T00:27:44.565Z,34.23
2019-03-12T00:30:11.042Z,49.03
2019-03-12T00:32:37.398Z,43.37
2019-03-12T00:35:05.442Z,38.80
2019-03-12T00:37:31.825Z,29.00
2019-03-12T00:39:58.154Z,36.87
2019-03-12T00:42:24.506Z,30.07
2019-03-12T00:44:51.197Z,32.13
2019-03-12T00:50:28.980Z,37.77
2019-03-12T00:52:55.391Z,62.10
2019-03-12T00:55:22.796Z,80.50
2019-03-12T00:57:49.172Z,64.27
2019-03-12T01:00:17.546Z,53.23
2019-03-12T01:02:43.944Z,46.03
2019-03-12T01:05:10.345Z,44.27
2019-03-12T01:07:36.813Z,47.23
2019-03-12T01:10:05.513Z,39.77
2019-03-12T01:12:32.013Z,44.33
2019-03-12T01:14:58.360Z,37.87
2019-03-12T01:17:24.717Z,37.93
2019-03-12T01:19:51.129Z,36.97
2019-03-12T01:22:17.555Z,38.10
2019-03-12T01:24:43.944Z,41.73
2019-03-12T01:27:10.300Z,35.30
2019-03-12T01:29:36.702Z,36.50
2019-03-12T01:32:03.075Z,38.33
2019-03-12T01:34:29.496Z,38.17
2019-03-12T01:36:55.883Z,42.57
2019-03-12T01:39:22.320Z,31.07
2019-03-12T01:41:48.728Z,39.10
2019-03-12T01:44:15.063Z,33.70
2019-03-12T01:46:41.502Z,30.07
2019-03-12T01:49:07.832Z,27.50
2019-03-12T01:51:34.238Z,29.77
2019-03-12T01:54:00.624Z,29.37
2019-03-12T01:56:27.029Z,35.67
2019-03-12T01:58:53.439Z,38.60
2019-03-12T02:01:19.867Z,25.97
2019-03-12T02:03:46.343Z,38.13
2019-03-12T02:06:12.786Z,35.03
2019-03-12T02:08:39.260Z,30.20
2019-03-12T02:11:05.599Z,29.67
2019-03-12T02:13:32.018Z,36.30
2019-03-12T02:15:58.462Z,25.63
2019-03-12T02:18:24.996Z,25.07
2019-03-12T02:20:51.371Z,24.80
2019-03-12T02:23:17.807Z,24.57
2019-03-12T02:25:44.242Z,31.17
2019-03-12T02:28:10.749Z,30.57
2019-03-12T02:30:37.106Z,26.07
2019-03-12T02:33:03.737Z,24.40
2019-03-12T02:35:30.185Z,25.53
2019-03-12T02:37:56.637Z,22.30
2019-03-12T02:40:23.087Z,24.10
2019-03-12T02:42:49.532Z,32.20
2019-03-12T02:45:15.957Z,25.70
2019-03-12T02:47:42.306Z,27.63
2019-03-12T02:50:14.454Z,24.27
2019-03-12T02:52:41.552Z,24.13
2019-03-12T02:55:08.577Z,19.00
2019-03-12T02:57:35.010Z,23.43
2019-03-12T03:00:03.754Z,30.30
2019-03-12T03:02:30.661Z,21.03
2019-03-12T03:04:57.072Z,27.80
2019-03-12T03:07:28.207Z,25.83
2019-03-12T03:09:54.581Z,21.43
2019-03-12T03:12:20.957Z,27.63
2019-03-12T03:14:47.593Z,25.10
2019-03-12T03:17:14.813Z,28.77
2019-03-12T03:19:41.138Z,28.43
2019-03-12T03:22:07.555Z,25.47
2019-03-12T03:24:33.976Z,29.20
2019-03-12T03:27:00.428Z,38.43
2019-03-12T03:29:26.896Z,54.40
2019-03-12T03:31:53.367Z,54.97
2019-03-12T03:34:27.020Z,76.10
2019-03-12T03:36:48.017Z,63.77
2019-03-12T03:39:14.435Z,60.17
2019-03-12T03:41:40.901Z,51.33
2019-03-12T03:44:07.237Z,51.20
2019-03-12T03:46:33.662Z,52.47
2019-03-12T03:49:00.004Z,39.27
2019-03-12T03:51:26.441Z,33.87
2019-03-12T03:53:53.986Z,38.73
2019-03-12T03:56:20.476Z,42.57
2019-03-12T03:58:46.869Z,27.73
2019-03-12T04:01:13.243Z,30.30
2019-03-12T04:03:39.650Z,31.87
2019-03-12T04:06:06.022Z,30.43
2019-03-12T04:08:32.430Z,31.70
2019-03-12T04:10:59.115Z,25.27
2019-03-12T04:13:25.720Z,25.50
2019-03-12T04:15:52.140Z,22.77
2019-03-12T04:18:18.578Z,27.77
2019-03-12T04:20:44.955Z,25.17
2019-03-12T04:23:11.469Z,24.57
2019-03-12T04:25:37.848Z,23.33
2019-03-12T04:28:04.166Z,33.03
2019-03-12T04:30:30.607Z,20.37
2019-03-12T04:32:56.951Z,23.33
2019-03-12T04:35:34.077Z,21.77
2019-03-12T04:38:00.458Z,33.03
2019-03-12T04:40:26.907Z,27.30
2019-03-12T04:42:53.385Z,24.73
2019-03-12T04:45:19.810Z,22.60
2019-03-12T04:47:46.241Z,24.87
2019-03-12T04:50:14.047Z,20.13
2019-03-12T04:52:40.467Z,29.77
2019-03-12T04:55:12.693Z,25.47
2019-03-12T04:57:40.103Z,24.93
2019-03-12T05:00:09.955Z,24.13
2019-03-12T05:02:36.333Z,41.30
2019-03-12T05:05:04.719Z,33.70
2019-03-12T05:07:31.164Z,23.20
2019-03-12T05:09:57.669Z,22.03
2019-03-12T05:12:24.189Z,20.77
2019-03-12T05:14:50.541Z,15.30
2019-03-12T05:17:16.964Z,20.63
2019-03-12T05:19:44.266Z,20.60
2019-03-12T05:22:10.915Z,17.33
2019-03-12T05:24:37.436Z,26.20
2019-03-12T05:27:03.942Z,22.10
2019-03-12T05:29:30.333Z,15.57
2019-03-12T05:31:56.777Z,15.10
2019-03-12T05:34:23.471Z,14.67
2019-03-12T05:36:50.079Z,20.63
2019-03-12T05:39:16.545Z,20.93
2019-03-12T05:41:43.041Z,22.93
2019-03-12T05:44:09.523Z,21.60
2019-03-12T05:46:35.946Z,27.60
2019-03-12T05:49:02.453Z,35.27
2019-03-12T05:51:28.900Z,33.43
2019-03-12T05:53:55.293Z,38.83
2019-03-12T05:56:21.714Z,46.47
2019-03-12T05:58:48.103Z,46.23
2019-03-12T06:01:14.625Z,54.77
2019-03-12T06:03:41.163Z,46.37
2019-03-12T06:06:07.523Z,59.73
2019-03-12T06:08:34.026Z,56.83
2019-03-12T06:11:00.364Z,38.00
2019-03-12T06:13:26.773Z,52.37
2019-03-12T06:15:53.358Z,76.30
2019-03-12T06:18:19.877Z,56.70
2019-03-12T06:20:46.373Z,64.33
2019-03-12T06:23:15.316Z,65.23
2019-03-12T06:25:41.930Z,41.87
2019-03-12T06:28:08.396Z,36.93
2019-03-12T06:30:36.698Z,43.70
2019-03-12T06:33:05.055Z,60.40
2019-03-12T06:35:54.190Z,58.33
2019-03-12T06:38:24.823Z,56.23
2019-03-12T06:40:55.896Z,52.37
2019-03-12T06:43:24.208Z,52.20
2019-03-12T06:45:55.417Z,59.23
2019-03-12T06:48:23.826Z,26.67
2019-03-12T06:50:52.322Z,59.77
2019-03-12T06:53:37.827Z,44.20
2019-03-12T06:56:22.715Z,38.33
2019-03-12T06:59:03.306Z,70.97
2019-03-12T07:01:43.831Z,32.63
2019-03-12T07:04:12.127Z,30.43
2019-03-12T07:06:43.320Z,28.43
2019-03-12T07:09:14.474Z,23.00
2019-03-12T07:11:48.850Z,24.20
2019-03-12T07:14:32.235Z,19.43
2019-03-12T07:17:06.545Z,20.33
2019-03-12T07:19:51.507Z,18.50
2019-03-12T07:22:29.178Z,16.43
2019-03-12T07:25:00.399Z,13.03
2019-03-12T07:27:28.820Z,18.43
2019-03-12T07:29:57.109Z,24.17
2019-03-12T07:32:25.421Z,26.87
2019-03-12T07:35:08.882Z,19.23
2019-03-12T07:37:53.574Z,31.60
2019-03-12T07:40:21.883Z,28.80
2019-03-12T07:42:58.969Z,23.60
2019-03-12T07:45:29.842Z,12.97
2019-03-12T07:47:58.080Z,18.70
2019-03-12T07:50:32.378Z,15.20
2019-03-12T07:53:19.105Z,24.07
2019-03-12T07:55:56.897Z,36.63
2019-03-12T07:58:35.662Z,30.10
2019-03-12T08:01:07.112Z,23.07
2019-03-12T08:03:45.380Z,33.87
2019-03-12T08:06:30.609Z,34.83
2019-03-12T08:09:11.105Z,25.10
2019-03-12T08:11:46.425Z,14.17
2019-03-12T08:14:17.511Z,15.53
2019-03-12T08:16:51.689Z,20.73
2019-03-12T08:19:32.273Z,19.03
2019-03-12T08:22:12.606Z,29.73
2019-03-12T08:24:46.974Z,22.23
2019-03-12T08:27:17.997Z,37.40
2019-03-12T08:29:46.323Z,13.17
2019-03-12T08:32:24.089Z,23.93
2019-03-12T08:34:52.694Z,11.23
2019-03-12T08:37:21.044Z,13.83
2019-03-12T08:39:58.041Z,17.47
2019-03-12T08:42:28.947Z,17.50
2019-03-12T08:45:15.401Z,17.52
2019-03-12T08:47:51.399Z,15.58
2019-03-12T08:50:26.168Z,15.23
2019-03-12T08:52:54.516Z,6.67
2019-03-12T08:55:28.750Z,8.30
2019-03-12T08:58:12.773Z,11.95
2019-03-12T09:00:41.171Z,7.60
2019-03-12T09:03:26.189Z,20.65
2019-03-12T09:05:54.498Z,23.25
2019-03-12T09:08:25.574Z,15.27
2019-03-12T09:10:56.915Z,20.23
2019-03-12T09:13:41.689Z,14.35
2019-03-12T09:16:16.250Z,11.73
2019-03-12T09:18:50.595Z,14.65
2019-03-12T09:21:31.369Z,11.75
2019-03-12T09:24:16.383Z,15.35
2019-03-12T09:26:47.743Z,19.32
2019-03-12T09:29:21.859Z,18.90
2019-03-12T09:31:55.729Z,20.40
2019-03-12T09:34:26.946Z,25.93
2019-03-12T09:36:58.391Z,38.07
2019-03-12T09:39:38.982Z,24.50
2019-03-12T09:42:25.729Z,24.47
2019-03-12T09:44:59.895Z,9.60
2019-03-12T09:47:31.377Z,12.57
2019-03-12T09:50:08.665Z,8.33
2019-03-12T09:52:55.256Z,66.50
2019-03-12T09:55:26.103Z,24.20
2019-03-12T09:57:57.137Z,56.23
2019-03-12T10:00:25.509Z,17.83
2019-03-12T10:02:56.912Z,11.97
2019-03-12T10:05:25.238Z,15.27
2019-03-12T10:08:02.876Z,14.37
2019-03-12T10:10:43.444Z,14.20
2019-03-12T10:13:20.992Z,15.93
2019-03-12T10:16:06.061Z,19.37
2019-03-12T10:18:43.628Z,18.13
2019-03-12T10:21:14.512Z,25.53
2019-03-12T10:23:43.738Z,24.77
2019-03-12T10:26:12.029Z,26.50
2019-03-12T10:28:57.320Z,26.17
2019-03-12T10:31:42.038Z,34.33
2019-03-12T10:34:10.374Z,22.10
2019-03-12T10:36:39.805Z,21.20
2019-03-12T10:40:02.250Z,22.47
2019-03-12T10:42:44.529Z,15.90
2019-03-12T10:45:31.299Z,19.97
2019-03-12T10:48:00.113Z,22.13
2019-03-12T10:50:26.606Z,19.03
2019-03-12T10:52:53.010Z,21.30
2019-03-12T10:55:19.527Z,19.30
2019-03-12T10:57:45.862Z,20.00
2019-03-12T11:00:14.078Z,21.33
2019-03-12T11:02:40.825Z,17.63
2019-03-12T11:05:07.543Z,18.93
2019-03-12T11:07:33.972Z,17.03
2019-03-12T11:10:00.522Z,12.77
2019-03-12T11:12:26.985Z,16.57
2019-03-12T11:14:53.411Z,17.87
2019-03-12T11:17:19.891Z,20.17
2019-03-12T11:19:46.409Z,17.10
2019-03-12T11:22:12.874Z,14.30
2019-03-12T11:24:39.326Z,19.53
2019-03-12T11:27:05.743Z,16.93
2019-03-12T11:29:32.126Z,13.17
2019-03-12T11:31:58.581Z,17.77
2019-03-12T11:34:25.067Z,14.33
2019-03-12T11:36:51.538Z,16.70
2019-03-12T11:39:17.946Z,13.83
2019-03-12T11:41:44.685Z,15.80
2019-03-12T11:44:11.151Z,10.33
2019-03-12T11:46:44.090Z,21.97
2019-03-12T11:49:05.831Z,17.70
2019-03-12T11:51:32.369Z,14.93
2019-03-12T11:53:58.724Z,11.47
2019-03-12T11:56:26.205Z,12.93
2019-03-12T11:58:52.596Z,11.80
2019-03-12T12:01:19.037Z,15.37
2019-03-12T12:03:45.402Z,15.67
2019-03-12T12:06:11.859Z,24.40
2019-03-12T12:08:38.286Z,15.30
2019-03-12T12:11:04.690Z,14.20
2019-03-12T12:13:31.076Z,13.47
2019-03-12T12:15:57.471Z,13.20
2019-03-12T12:18:23.957Z,12.17
2019-03-12T12:20:50.384Z,20.07
2019-03-12T12:23:16.775Z,11.73
2019-03-12T12:25:44.102Z,11.70
2019-03-12T12:28:10.541Z,14.17
2019-03-12T12:30:36.894Z,12.10
2019-03-12T12:33:03.287Z,17.17
2019-03-12T12:35:29.638Z,18.30
2019-03-12T12:37:56.056Z,16.53
2019-03-12T12:40:22.574Z,15.03
2019-03-12T12:42:49.017Z,15.47
2019-03-12T12:45:25.162Z,19.23
2019-03-12T12:47:51.584Z,26.00
2019-03-12T12:50:18.081Z,15.20
2019-03-12T12:52:44.822Z,15.90
2019-03-12T12:55:13.062Z,12.40
2019-03-12T12:57:39.492Z,15.67
2019-03-12T13:00:12.401Z,17.60
2019-03-12T13:02:38.993Z,13.23
2019-03-12T13:05:05.563Z,12.37
2019-03-12T13:07:31.977Z,16.60
2019-03-12T13:09:58.358Z,12.60
2019-03-12T13:12:24.808Z,8.90
2019-03-12T13:14:51.228Z,10.00
2019-03-12T13:17:17.622Z,10.30
2019-03-12T13:19:44.160Z,8.93
2019-03-12T13:22:10.596Z,8.13
2019-03-12T13:24:37.028Z,6.73
2019-03-12T13:27:03.463Z,11.00
2019-03-12T13:29:29.900Z,11.73
2019-03-12T13:31:56.350Z,10.03
2019-03-12T13:34:22.716Z,8.33
2019-03-12T13:36:49.174Z,9.90
2019-03-12T13:39:15.654Z,8.77
2019-03-12T13:41:42.212Z,10.00
2019-03-12T13:44:08.648Z,8.33
2019-03-12T13:46:35.197Z,5.93
2019-03-12T13:49:01.636Z,8.13
2019-03-12T13:51:28.054Z,8.03
2019-03-12T13:53:54.467Z,12.10
2019-03-12T13:56:20.895Z,18.37
2019-03-12T13:58:47.359Z,15.90
2019-03-12T14:01:13.801Z,12.00
2019-03-12T14:03:40.305Z,13.20
2019-03-12T14:06:07.565Z,11.43
2019-03-12T14:08:33.975Z,9.00
2019-03-12T14:11:00.446Z,10.77
2019-03-12T14:13:27.082Z,13.37
2019-03-12T14:15:53.667Z,15.30
2019-03-12T14:18:20.098Z,14.30
2019-03-12T14:20:52.829Z,13.63
2019-03-12T14:23:34.319Z,16.53
2019-03-12T14:26:00.912Z,15.53
2019-03-12T14:28:27.365Z,16.70
2019-03-12T14:30:53.903Z,13.47
2019-03-12T14:33:20.317Z,12.30
2019-03-12T14:35:51.324Z,15.83
2019-03-12T14:38:15.074Z,13.60
2019-03-12T14:40:41.711Z,16.70
2019-03-12T14:43:08.261Z,10.67
2019-03-12T14:45:36.922Z,13.23
2019-03-12T14:48:03.366Z,15.20
2019-03-12T14:50:30.994Z,14.90
2019-03-12T14:53:17.323Z,11.60
2019-03-12T14:55:35.847Z,13.27
2019-03-12T14:58:02.334Z,11.67
2019-03-12T15:00:28.817Z,12.63
2019-03-12T15:02:55.218Z,11.77
2019-03-12T15:05:21.749Z,17.10
2019-03-12T15:07:48.278Z,18.43
2019-03-12T15:10:14.910Z,10.90
2019-03-12T15:12:41.326Z,11.73
2019-03-12T15:15:09.663Z,14.23
2019-03-12T15:17:36.086Z,11.67
2019-03-12T15:20:04.734Z,10.53
2019-03-12T15:22:31.234Z,14.83
2019-03-12T15:24:57.735Z,13.97
2019-03-12T15:27:24.211Z,14.93
2019-03-12T15:29:50.662Z,15.90
2019-03-12T15:32:18.100Z,18.57
2019-03-12T15:34:44.510Z,14.20
2019-03-12T15:37:10.940Z,12.93
2019-03-12T15:39:37.427Z,21.50
2019-03-12T15:42:03.924Z,13.00
2019-03-12T15:44:30.361Z,10.77
2019-03-12T15:46:56.824Z,13.73
2019-03-12T15:49:23.648Z,13.97
2019-03-12T15:51:50.154Z,12.27
2019-03-12T15:54:16.546Z,13.57
2019-03-12T15:56:42.985Z,13.37
2019-03-12T15:59:09.397Z,14.70
2019-03-12T16:01:37.595Z,12.53
2019-03-12T16:04:05.065Z,13.33
2019-03-12T16:06:31.534Z,15.87
2019-03-12T16:08:57.989Z,21.10
2019-03-12T16:11:24.357Z,18.97
2019-03-12T16:13:50.787Z,17.47
2019-03-12T16:16:17.275Z,14.50
2019-03-12T16:18:43.803Z,16.57
2019-03-12T16:21:10.241Z,16.87
2019-03-12T16:23:36.642Z,17.03
2019-03-12T16:26:02.958Z,20.10
2019-03-12T16:28:29.374Z,17.33
2019-03-12T16:30:55.753Z,16.97
2019-03-12T16:33:22.190Z,16.20
2019-03-12T16:35:49.509Z,13.73
2019-03-12T16:38:16.175Z,12.53
2019-03-12T16:40:42.509Z,18.80
2019-03-12T16:43:08.955Z,15.37
2019-03-12T16:45:35.303Z,12.43
2019-03-12T16:48:01.750Z,13.77
2019-03-12T16:50:28.247Z,17.83
2019-03-12T16:52:54.670Z,13.60
2019-03-12T16:55:21.102Z,16.97
2019-03-12T16:57:47.512Z,13.50
2019-03-12T17:00:18.261Z,16.37
2019-03-12T17:02:45.391Z,18.80
2019-03-12T17:05:12.535Z,17.40
2019-03-12T17:07:38.957Z,19.10
2019-03-12T17:10:08.833Z,16.13
2019-03-12T17:12:35.376Z,16.13
2019-03-12T17:15:02.639Z,21.77
2019-03-12T17:17:31.487Z,17.67
2019-03-12T17:19:58.591Z,16.30
2019-03-12T17:22:25.715Z,16.90
2019-03-12T17:24:52.219Z,16.67
2019-03-12T17:27:18.674Z,18.80
2019-03-12T17:29:45.277Z,22.60
2019-03-12T17:32:12.807Z,16.00
2019-03-12T17:34:39.255Z,15.97
2019-03-12T17:37:05.712Z,18.20
2019-03-12T17:39:32.321Z,16.77
2019-03-12T17:41:59.048Z,15.33
2019-03-12T17:44:25.645Z,13.00
2019-03-12T17:46:52.070Z,21.53
2019-03-12T17:49:18.557Z,17.87
2019-03-12T17:51:45.063Z,16.33
2019-03-12T17:54:11.530Z,21.93
2019-03-12T17:56:38.006Z,20.07
2019-03-12T17:59:04.481Z,15.43
2019-03-12T18:01:30.907Z,18.70
2019-03-12T18:03:57.363Z,20.07
2019-03-12T18:06:23.849Z,18.57
2019-03-12T18:08:50.350Z,27.20
2019-03-12T18:11:16.779Z,20.27
2019-03-12T18:13:43.233Z,20.40
2019-03-12T18:16:09.761Z,17.60
2019-03-12T18:18:36.221Z,19.73
2019-03-12T18:21:02.751Z,17.87
2019-03-12T18:23:29.150Z,16.13
2019-03-12T18:25:55.545Z,21.73
2019-03-12T18:28:22.626Z,13.10
2019-03-12T18:30:49.728Z,17.03
2019-03-12T18:33:16.952Z,16.57
2019-03-12T18:35:43.453Z,18.97
2019-03-12T18:38:09.898Z,23.47
2019-03-12T18:40:36.343Z,24.77
2019-03-12T18:43:02.988Z,16.20
2019-03-12T18:45:31.631Z,17.33
2019-03-12T18:47:58.524Z,18.10
2019-03-12T18:50:25.106Z,18.90
2019-03-12T18:52:51.687Z,18.57
2019-03-12T18:55:33.825Z,23.40
2019-03-12T18:58:02.114Z,29.03
2019-03-12T19:00:30.915Z,32.10
2019-03-12T19:02:58.767Z,26.97
2019-03-12T19:05:28.200Z,30.07
2019-03-12T19:07:54.802Z,32.13
2019-03-12T19:10:21.257Z,30.90
2019-03-12T19:12:47.693Z,36.93
2019-03-12T19:15:14.815Z,34.20
2019-03-12T19:17:41.294Z,32.47
2019-03-12T19:20:17.926Z,32.27
2019-03-12T19:22:44.534Z,30.33
2019-03-12T19:25:14.074Z,35.83
2019-03-12T19:27:40.657Z,36.23
2019-03-12T19:30:12.792Z,46.13
2019-03-12T19:32:49.497Z,40.77
2019-03-12T19:35:19.646Z,50.03
2019-03-12T19:37:46.318Z,50.97
2019-03-12T19:40:18.897Z,45.87
2019-03-12T19:42:45.626Z,47.23
2019-03-12T19:45:12.455Z,50.20
2019-03-12T19:47:39.287Z,48.07
2019-03-12T19:50:15.980Z,49.43
2019-03-12T19:52:42.627Z,46.37
2019-03-12T19:55:15.319Z,45.93
2019-03-12T19:57:42.447Z,47.50
2019-03-12T20:00:12.807Z,43.67
2019-03-12T20:02:39.955Z,43.37
2019-03-12T20:05:08.869Z,42.87
2019-03-12T20:07:35.864Z,40.37
2019-03-12T20:10:27.414Z,37.97
2019-03-12T20:13:20.652Z,41.00
2019-03-12T20:16:07.968Z,41.13
2019-03-12T20:18:56.773Z,39.23
2019-03-12T20:21:29.902Z,44.87
2019-03-12T20:24:32.132Z,47.27
2019-03-12T20:27:36.044Z,45.80
2019-03-12T20:30:25.871Z,43.80
2019-03-12T20:33:16.094Z,43.20
2019-03-12T20:36:20.337Z,48.10
2019-03-12T20:39:16.790Z,51.80
2019-03-12T20:42:11.752Z,50.77
2019-03-12T20:45:16.629Z,46.33
2019-03-12T20:48:10.151Z,48.57
2019-03-12T20:51:01.770Z,48.93
2019-03-12T20:54:05.158Z,55.43
2019-03-12T20:56:59.739Z,56.57
2019-03-12T20:59:56.236Z,56.93
2019-03-12T21:02:38.808Z,53.80
2019-03-12T21:05:44.494Z,58.50
2019-03-12T21:08:27.043Z,60.20
2019-03-12T21:11:31.267Z,60.10
2019-03-12T21:14:13.017Z,62.73
2019-03-12T21:17:14.765Z,57.80
2019-03-12T21:20:04.709Z,64.00
2019-03-12T21:22:51.819Z,60.50
2019-03-12T21:25:54.365Z,60.57
2019-03-12T21:28:36.562Z,60.67
2019-03-12T21:31:02.990Z,63.00
2019-03-12T21:33:29.441Z,63.17
2019-03-12T21:35:55.837Z,65.80
2019-03-12T21:38:22.306Z,60.70
2019-03-12T21:40:48.749Z,62.97
2019-03-12T21:43:15.173Z,64.40
2019-03-12T21:45:41.617Z,60.60
2019-03-12T21:48:08.035Z,69.83
2019-03-12T21:50:34.511Z,59.63
2019-03-12T21:53:00.934Z,65.17
2019-03-12T21:55:27.374Z,60.33
2019-03-12T21:57:54.070Z,65.43
2019-03-12T22:00:20.474Z,78.83
2019-03-12T22:02:47.109Z,64.20
2019-03-12T22:05:13.565Z,68.90
2019-03-12T22:07:39.991Z,78.83
2019-03-12T22:10:09.015Z,60.90
2019-03-12T22:12:35.541Z,76.03
2019-03-12T22:15:03.888Z,65.90
2019-03-12T22:17:32.265Z,75.33
2019-03-12T22:19:58.692Z,64.93
2019-03-12T22:22:27.031Z,70.47
2019-03-12T22:24:53.479Z,64.80
2019-03-12T22:27:20.037Z,70.97
2019-03-12T22:29:46.459Z,68.37
2019-03-12T22:32:12.929Z,68.33
2019-03-12T22:34:39.391Z,75.67
2019-03-12T22:37:05.795Z,68.37
2019-03-12T22:39:32.287Z,75.77
2019-03-12T22:41:58.762Z,63.03
2019-03-12T22:44:25.171Z,64.33
2019-03-12T22:46:51.627Z,78.37
2019-03-12T22:49:19.068Z,71.10
2019-03-12T22:51:45.545Z,63.50
2019-03-12T22:54:11.992Z,74.07
2019-03-12T22:56:38.511Z,66.17
2019-03-12T22:59:06.922Z,78.50
2019-03-12T23:01:51.640Z,64.77
2019-03-12T23:04:36.540Z,65.77
2019-03-12T23:07:21.817Z,66.50
2019-03-12T23:09:50.247Z,61.57
2019-03-12T23:12:18.811Z,66.13
2019-03-12T23:14:47.210Z,75.53
2019-03-12T23:17:15.756Z,69.70
2019-03-12T23:19:44.142Z,71.10
2019-03-12T23:22:10.621Z,64.33
2019-03-12T23:24:37.582Z,70.90
2019-03-12T23:27:04.117Z,68.47
2019-03-12T23:29:30.581Z,70.97
2019-03-12T23:31:58.188Z,60.47
2019-03-12T23:34:24.674Z,59.80
2019-03-12T23:36:51.126Z,58.73
2019-03-12T23:39:17.570Z,68.00
2019-03-12T23:41:44.229Z,63.83
2019-03-12T23:44:10.938Z,61.57
2019-03-12T23:46:37.412Z,58.93
2019-03-12T23:49:04.003Z,63.03
2019-03-12T23:51:30.564Z,59.73
2019-03-12T23:53:57.029Z,55.27
2019-03-12T23:56:24.635Z,60.37
2019-03-12T23:58:51.122Z,56.63
